Impacts METAR Board INFO
IDs:

KJFK - New York/Kennedy Int, NY, US

Updated at: 0447 UTC 12 Dec 2017
Potential Impact None Slight Moderate High
Time11/16Z 11/17Z 11/18Z 11/19Z 11/20Z 11/21Z 11/22Z 11/23Z 12/00Z 12/01Z 12/02Z 12/03Z 12/04Z
VIS10 10 10 10 10 10 10 10 10 10 10 10 10
CIG-- -- -- 250 250 180 250 210 250 110 110 85 80
CoverFEWSCTSCTBKNBKNBKNBKNBKNBKNBKNOVCOVCOVC
FltCatVFRVFRVFRVFRVFRVFRVFRVFRVFRVFRVFRVFRVFR
WX--------------------------
WDir290290260290290310270250230250260240100
WSpd14 8 9 7 8 7 7 8 6 7 4 5 4
WGst-- -- -- -- -- -- -- -- -- -- -- -- --
Raw hourly METARs
KJFK 111551Z 29014KT 10SM FEW037 FEW070 03/M04 A3006 RMK AO2 SLP177 T00281039
KJFK 111651Z 29008KT 10SM FEW038 SCT250 03/M04 A3003 RMK AO2 SLP168 T00331044
KJFK 111751Z 26009KT 10SM FEW038 SCT250 04/M04 A3000 RMK AO2 SLP160 4/001 T00441039 10044 20006 58016
KJFK 111851Z 29007KT 240V310 10SM FEW043 BKN250 05/M04 A3000 RMK AO2 SLP158 T00501044
KJFK 111951Z 29008KT 10SM FEW050 FEW200 BKN250 04/M05 A3001 RMK AO2 SLP161 T00441050
KJFK 112051Z 31007KT 10SM FEW050 BKN180 BKN220 04/M06 A3000 RMK AO2 SLP159 T00441056 58001
KJFK 112151Z 27007KT 10SM FEW050 SCT160 SCT210 BKN250 04/M05 A3001 RMK AO2 SLP163 T00391050
KJFK 112251Z 25008KT 10SM FEW050 FEW140 BKN210 BKN250 03/M04 A3003 RMK AO2 SLP169 T00281044
KJFK 112351Z 23006KT 10SM FEW140 FEW220 BKN250 02/M04 A3003 RMK AO2 SLP167 4/001 T00171044 10050 20017 50008
KJFK 120051Z 25007KT 10SM FEW050 BKN110 BKN250 03/M05 A3003 RMK AO2 SLP169 T00281050
KJFK 120151Z 26004KT 10SM BKN110 OVC250 03/M04 A3001 RMK AO2 SLP163 T00331039
KJFK 120251Z 24005KT 10SM BKN085 OVC120 03/M04 A3000 RMK AO2 SLP159 T00281039 58008
KJFK 120351Z 10004KT 10SM BKN080 BKN120 OVC210 02/M03 A2998 RMK AO2 SLP152 T00221028